Time;durP1;ratioP1;P1;durP2;ratioP2;P2;SDS_P1;SDS_P2;PMS_P1;PMS_P2;Temp;Humidity;BMP_temperature;BMP_pressure;BME280_temperature;BME280_humidity;BME280_pressure;Samples;Min_cycle;Max_cycle;Signal;HPM_P1;HPM_P2
2023/06/28 00:01:07;;;;;;;1.93;1.67;;;26.20;48.70;;;;;;5052592;28;20282;-68
2023/06/28 00:03:33;;;;;;;3.03;1.80;;;26.20;48.70;;;;;;5052615;28;20179;-66
2023/06/28 00:05:58;;;;;;;2.43;2.10;;;26.20;48.80;;;;;;5052467;28;20203;-67
2023/06/28 00:08:24;;;;;;;2.67;2.00;;;26.20;48.70;;;;;;5052546;28;20181;-66
2023/06/28 00:10:50;;;;;;;3.50;2.00;;;26.20;48.70;;;;;;5052486;28;20209;-67
2023/06/28 00:13:17;;;;;;;2.73;1.73;;;26.20;48.80;;;;;;5052484;28;20175;-67
2023/06/28 00:15:42;;;;;;;2.43;2.20;;;26.20;48.80;;;;;;5052578;28;20425;-66
2023/06/28 00:18:08;;;;;;;2.30;2.03;;;26.20;48.80;;;;;;5052355;28;20906;-65
2023/06/28 00:20:34;;;;;;;2.13;1.70;;;26.20;48.80;;;;;;5052286;28;20199;-66
2023/06/28 00:23:00;;;;;;;2.10;1.90;;;26.20;48.80;;;;;;5051878;28;20197;-66
2023/06/28 00:25:26;;;;;;;2.57;1.90;;;26.20;48.80;;;;;;5052101;28;20465;-66
2023/06/28 00:27:51;;;;;;;2.40;2.20;;;26.10;48.70;;;;;;5052192;28;20662;-66
2023/06/28 00:30:17;;;;;;;2.50;2.30;;;26.10;48.70;;;;;;5052142;28;20228;-67
2023/06/28 00:32:43;;;;;;;3.53;1.90;;;26.10;48.70;;;;;;5052145;28;20666;-65
2023/06/28 00:35:08;;;;;;;2.60;1.80;;;26.10;48.70;;;;;;5052042;28;20171;-67
2023/06/28 00:37:34;;;;;;;2.13;1.93;;;26.10;48.70;;;;;;5052317;28;20246;-66
2023/06/28 00:40:00;;;;;;;2.83;2.53;;;26.10;48.80;;;;;;5051892;28;20545;-67
2023/06/28 00:42:26;;;;;;;2.50;2.07;;;26.10;48.80;;;;;;5052229;28;20257;-67
2023/06/28 00:44:51;;;;;;;2.20;1.73;;;26.10;48.80;;;;;;5051976;28;20547;-66
2023/06/28 00:47:18;;;;;;;2.23;2.00;;;26.10;48.80;;;;;;5051880;28;20213;-67
2023/06/28 00:49:45;;;;;;;2.80;2.00;;;26.10;48.80;;;;;;5051766;28;20244;-67
2023/06/28 00:52:12;;;;;;;3.03;2.17;;;26.10;48.80;;;;;;5051919;28;20405;-66
2023/06/28 00:54:39;;;;;;;2.60;2.20;;;26.10;48.80;;;;;;5051851;28;20499;-67
2023/06/28 00:57:05;;;;;;;2.90;1.93;;;26.10;48.80;;;;;;5051784;28;20461;-67
2023/06/28 00:59:31;;;;;;;2.60;2.03;;;26.10;48.80;;;;;;5051835;28;20445;-65
2023/06/28 01:01:57;;;;;;;2.07;1.87;;;26.10;48.90;;;;;;5051826;28;20456;-66
2023/06/28 01:04:22;;;;;;;2.20;2.00;;;26.10;48.90;;;;;;5052046;28;20178;-66
2023/06/28 01:06:53;;;;;;;2.50;2.03;;;26.10;48.90;;;;;;5051737;28;20791;-65
2023/06/28 01:09:24;;;;;;;4.00;2.10;;;26.10;48.90;;;;;;5051815;28;20201;-67
2023/06/28 01:11:52;;;;;;;3.30;2.20;;;26.10;48.90;;;;;;5051709;28;20413;-67
2023/06/28 01:14:19;;;;;;;2.50;2.27;;;26.10;48.90;;;;;;5050762;28;20976;-66
2023/06/28 01:16:54;;;;;;;3.50;1.83;;;26.10;49.00;;;;;;5051632;28;20500;-67
2023/06/28 01:19:27;;;;;;;2.37;2.17;;;26.10;49.00;;;;;;5051707;28;20389;-67
2023/06/28 01:22:02;;;;;;;2.30;2.10;;;26.10;49.00;;;;;;5051570;28;20442;-67
2023/06/28 01:24:27;;;;;;;5.30;2.23;;;26.10;49.00;;;;;;5051598;28;20382;-67
2023/06/28 01:26:54;;;;;;;1.90;1.70;;;26.00;49.00;;;;;;5051433;28;20521;-67
2023/06/28 01:29:24;;;;;;;3.07;2.27;;;26.00;49.00;;;;;;5051546;28;20160;-67
2023/06/28 01:31:54;;;;;;;2.67;1.90;;;26.00;49.00;;;;;;5051566;28;20389;-67
2023/06/28 01:34:22;;;;;;;3.47;2.03;;;26.00;49.10;;;;;;5051413;28;20930;-68
2023/06/28 01:36:50;;;;;;;2.57;1.80;;;26.10;49.10;;;;;;5054710;28;20429;-65
2023/06/28 01:39:19;;;;;;;4.10;2.10;;;26.00;49.00;;;;;;5055296;28;20417;-66
2023/06/28 01:41:45;;;;;;;3.27;2.10;;;26.00;49.10;;;;;;5055191;28;20539;-67
2023/06/28 01:44:12;;;;;;;3.37;2.40;;;26.00;49.10;;;;;;5055208;28;20413;-67
2023/06/28 01:46:38;;;;;;;2.13;1.93;;;26.00;49.10;;;;;;5055089;28;20421;-66
2023/06/28 01:49:06;;;;;;;3.40;2.10;;;26.00;49.10;;;;;;5055013;28;20464;-67
2023/06/28 01:51:33;;;;;;;2.03;1.87;;;26.00;49.10;;;;;;5055113;28;20451;-67
2023/06/28 01:53:59;;;;;;;2.50;2.13;;;26.00;49.10;;;;;;5055260;28;20413;-66
2023/06/28 01:56:25;;;;;;;2.60;2.20;;;26.00;49.10;;;;;;5054938;28;20425;-67
2023/06/28 01:58:50;;;;;;;2.90;2.50;;;26.00;49.10;;;;;;5055220;28;20170;-67
2023/06/28 02:01:16;;;;;;;2.43;2.23;;;26.00;49.10;;;;;;5055195;28;20574;-66
2023/06/28 02:03:42;;;;;;;2.77;2.07;;;26.00;49.10;;;;;;5054892;28;20178;-67
2023/06/28 02:06:08;;;;;;;2.93;2.20;;;26.00;49.10;;;;;;5054787;28;20183;-67
2023/06/28 02:08:34;;;;;;;2.37;2.10;;;26.00;49.10;;;;;;5055058;28;20175;-67
2023/06/28 02:10:59;;;;;;;2.40;2.10;;;26.00;49.10;;;;;;5054687;28;20921;-67
2023/06/28 02:13:25;;;;;;;2.43;2.00;;;26.00;49.10;;;;;;5054722;28;20258;-66
2023/06/28 02:15:50;;;;;;;3.37;2.00;;;26.00;49.10;;;;;;5054589;28;20190;-67
2023/06/28 02:18:17;;;;;;;3.13;2.67;;;26.00;49.60;;;;;;5054639;28;20702;-67
2023/06/28 02:20:43;;;;;;;2.30;2.10;;;26.00;49.00;;;;;;5054544;28;20194;-66
2023/06/28 02:23:10;;;;;;;3.03;2.23;;;26.00;49.10;;;;;;5054776;28;20819;-67
2023/06/28 02:25:36;;;;;;;2.50;2.30;;;25.90;48.90;;;;;;5054388;28;20428;-67
2023/06/28 02:28:01;;;;;;;3.60;2.20;;;26.00;49.00;;;;;;5054404;28;20903;-67
2023/06/28 02:30:27;;;;;;;2.30;2.10;;;25.90;48.90;;;;;;5054344;28;20175;-66
2023/06/28 02:32:53;;;;;;;2.20;2.00;;;25.90;48.80;;;;;;5054318;28;20246;-67
2023/06/28 02:35:18;;;;;;;2.60;1.93;;;25.90;48.80;;;;;;5054229;28;20599;-67
2023/06/28 02:37:44;;;;;;;2.23;2.03;;;25.90;48.80;;;;;;5052977;28;20175;-67
2023/06/28 02:40:12;;;;;;;2.53;1.73;;;25.90;48.80;;;;;;5054134;28;20178;-67
2023/06/28 02:42:37;;;;;;;3.37;2.10;;;25.90;49.40;;;;;;5054189;28;20172;-67
2023/06/28 02:45:03;;;;;;;2.17;1.90;;;25.90;48.80;;;;;;5052704;28;20436;-67
2023/06/28 02:47:28;;;;;;;2.13;1.93;;;25.90;48.80;;;;;;5053735;28;20159;-67
2023/06/28 02:49:54;;;;;;;3.30;2.13;;;25.90;48.80;;;;;;5053935;28;20195;-66
2023/06/28 02:52:20;;;;;;;2.20;2.00;;;25.90;48.80;;;;;;5054008;28;20189;-66
2023/06/28 02:54:45;;;;;;;2.07;1.60;;;25.90;48.70;;;;;;5053918;28;20178;-67
2023/06/28 02:57:11;;;;;;;2.50;1.83;;;25.90;48.70;;;;;;5053812;28;20197;-67
2023/06/28 02:59:36;;;;;;;2.97;2.20;;;25.90;49.20;;;;;;5053875;28;20181;-66
2023/06/28 03:02:04;;;;;;;2.50;2.27;;;25.90;48.60;;;;;;5053684;28;20714;-67
2023/06/28 03:04:29;;;;;;;4.13;2.07;;;25.90;48.50;;;;;;5053801;28;20198;-67
2023/06/28 03:06:55;;;;;;;4.30;2.70;;;25.90;48.50;;;;;;5053691;28;21011;-67
2023/06/28 03:09:21;;;;;;;2.33;1.70;;;25.90;48.50;;;;;;5053645;28;20632;-66
2023/06/28 03:11:46;;;;;;;2.50;2.30;;;25.90;48.40;;;;;;5053594;28;20171;-67
2023/06/28 03:14:12;;;;;;;2.27;1.83;;;25.90;48.40;;;;;;5053548;28;20409;-67
2023/06/28 03:16:38;;;;;;;2.90;2.33;;;25.90;48.40;;;;;;5053403;28;20210;-67
2023/06/28 03:19:07;;;;;;;3.00;2.03;;;25.90;48.40;;;;;;5053480;28;20175;-67
2023/06/28 03:21:33;;;;;;;2.00;1.90;;;25.90;48.30;;;;;;5053355;28;20195;-66
2023/06/28 03:23:58;;;;;;;2.23;2.03;;;25.90;48.30;;;;;;5053611;28;20455;-67
2023/06/28 03:26:24;;;;;;;3.40;2.23;;;25.90;48.30;;;;;;5053239;28;20208;-65
2023/06/28 03:28:50;;;;;;;3.70;2.20;;;25.90;48.30;;;;;;5053514;28;20198;-66
2023/06/28 03:31:15;;;;;;;2.40;2.10;;;25.80;48.20;;;;;;5053248;28;20649;-66
2023/06/28 03:33:41;;;;;;;2.60;2.10;;;25.80;48.20;;;;;;5053435;28;20178;-67
2023/06/28 03:36:07;;;;;;;3.93;2.27;;;25.80;48.20;;;;;;5053044;28;20226;-67
2023/06/28 03:38:33;;;;;;;3.73;2.07;;;25.80;48.20;;;;;;5053062;28;20263;-67
2023/06/28 03:40:58;;;;;;;2.10;2.00;;;25.90;48.20;;;;;;5052988;28;20949;-67
2023/06/28 03:43:24;;;;;;;2.57;1.90;;;25.80;48.20;;;;;;5052989;28;20174;-66
2023/06/28 03:45:49;;;;;;;3.60;2.33;;;25.80;48.10;;;;;;5053119;28;20532;-66
2023/06/28 03:48:15;;;;;;;1.70;1.60;;;25.80;48.10;;;;;;5052911;28;20209;-66
2023/06/28 03:50:41;;;;;;;2.40;1.90;;;25.80;48.10;;;;;;5052692;28;20191;-67
2023/06/28 03:53:06;;;;;;;2.20;2.00;;;25.80;48.10;;;;;;5052776;28;20534;-67
2023/06/28 03:55:32;;;;;;;3.30;2.13;;;25.80;48.10;;;;;;5051139;28;20278;-68
2023/06/28 03:57:58;;;;;;;2.90;2.10;;;25.80;48.10;;;;;;5052012;28;20179;-66
2023/06/28 04:00:23;;;;;;;3.00;1.87;;;25.80;48.10;;;;;;5052594;28;20631;-67
2023/06/28 04:02:49;;;;;;;3.10;1.80;;;25.80;48.20;;;;;;5052647;28;20171;-67
2023/06/28 04:05:15;;;;;;;2.47;2.20;;;25.80;48.10;;;;;;5052516;28;20187;-67
2023/06/28 04:07:40;;;;;;;2.53;2.33;;;25.80;48.20;;;;;;5052550;28;20674;-67
2023/06/28 04:10:06;;;;;;;9.43;2.70;;;25.80;48.20;;;;;;5051986;28;20517;-67
2023/06/28 04:12:32;;;;;;;2.20;2.00;;;25.80;48.20;;;;;;5051840;28;20591;-67
2023/06/28 04:14:58;;;;;;;2.43;1.93;;;25.80;48.20;;;;;;5052325;28;20410;-67
2023/06/28 04:17:23;;;;;;;2.40;2.20;;;25.80;48.20;;;;;;5052205;28;20691;-67
2023/06/28 04:19:49;;;;;;;2.97;2.53;;;25.80;48.10;;;;;;5051063;28;20175;-66
2023/06/28 04:22:15;;;;;;;2.50;2.17;;;25.90;48.20;;;;;;5050970;28;20241;-67
2023/06/28 04:24:40;;;;;;;3.40;2.40;;;25.80;48.10;;;;;;5052276;28;20175;-67
2023/06/28 04:27:06;;;;;;;2.80;2.23;;;25.80;48.10;;;;;;5051774;28;20191;-67
2023/06/28 04:29:32;;;;;;;3.07;2.77;;;25.80;48.10;;;;;;5051741;28;20177;-66
2023/06/28 04:32:03;;;;;;;5.00;2.20;;;25.80;48.20;;;;;;5050353;28;20941;-67
2023/06/28 04:34:29;;;;;;;2.43;2.23;;;25.90;48.20;;;;;;5051680;28;20155;-65
2023/06/28 04:36:58;;;;;;;2.60;2.40;;;25.90;48.20;;;;;;5050341;28;20537;-66
2023/06/28 04:39:24;;;;;;;3.23;2.10;;;25.90;48.20;;;;;;5051518;28;20410;-67
2023/06/28 04:41:51;;;;;;;2.67;2.00;;;25.90;48.20;;;;;;5050230;28;20510;-65
2023/06/28 04:44:17;;;;;;;4.33;2.33;;;25.90;48.20;;;;;;5051451;28;20429;-67
2023/06/28 04:46:44;;;;;;;2.40;2.20;;;25.90;48.30;;;;;;5051185;28;20429;-66
2023/06/28 04:49:10;;;;;;;2.50;2.30;;;25.90;48.30;;;;;;5051349;28;20163;-67
2023/06/28 04:51:36;;;;;;;2.90;2.20;;;25.90;48.20;;;;;;5051443;28;20393;-66
2023/06/28 04:54:02;;;;;;;2.67;2.47;;;25.90;48.20;;;;;;5051395;28;20409;-66
2023/06/28 04:56:28;;;;;;;3.37;2.57;;;25.90;48.20;;;;;;5051336;28;20191;-67
2023/06/28 04:58:53;;;;;;;2.30;2.00;;;25.90;48.20;;;;;;5051348;28;20171;-67
2023/06/28 05:01:19;;;;;;;3.60;2.10;;;25.90;48.20;;;;;;5051269;28;20455;-67
2023/06/28 05:03:47;;;;;;;2.40;2.20;;;25.90;48.20;;;;;;5051341;28;20224;-66
2023/06/28 05:06:13;;;;;;;3.07;2.00;;;26.00;48.30;;;;;;5051235;28;20183;-67
2023/06/28 05:08:39;;;;;;;2.13;1.93;;;26.00;48.30;;;;;;5051256;28;20466;-65
2023/06/28 05:11:04;;;;;;;2.37;2.17;;;26.00;48.30;;;;;;5055269;28;20183;-66
2023/06/28 05:13:30;;;;;;;2.40;2.00;;;26.00;48.30;;;;;;5055277;28;20801;-64
2023/06/28 05:15:56;;;;;;;3.33;2.30;;;26.00;48.30;;;;;;5055491;28;20713;-68
2023/06/28 05:18:22;;;;;;;2.30;2.00;;;26.00;48.30;;;;;;5055284;28;20818;-65
2023/06/28 05:20:48;;;;;;;2.10;1.90;;;26.00;48.30;;;;;;5055082;28;20293;-66
2023/06/28 05:23:22;;;;;;;2.87;2.17;;;26.00;48.30;;;;;;5055190;28;20214;-66
2023/06/28 05:25:48;;;;;;;3.77;2.80;;;26.00;48.30;;;;;;5055003;28;20198;-67
2023/06/28 05:28:15;;;;;;;3.77;2.07;;;26.00;48.30;;;;;;5054860;28;20405;-65
2023/06/28 05:30:42;;;;;;;2.50;2.20;;;26.00;48.30;;;;;;5055010;28;20179;-66
2023/06/28 05:33:08;;;;;;;2.80;1.90;;;26.10;48.40;;;;;;5055212;28;20424;-66
2023/06/28 05:35:35;;;;;;;2.70;2.03;;;26.10;48.40;;;;;;5055011;28;20869;-66
2023/06/28 05:38:02;;;;;;;2.70;2.10;;;26.10;48.40;;;;;;5054979;28;20413;-67
2023/06/28 05:40:29;;;;;;;2.37;2.17;;;26.10;48.40;;;;;;5054935;28;20456;-66
2023/06/28 05:42:55;;;;;;;2.87;2.57;;;26.10;48.40;;;;;;5054806;28;20514;-67
2023/06/28 05:45:24;;;;;;;2.23;2.03;;;26.10;48.40;;;;;;5053797;28;20440;-67
2023/06/28 05:47:50;;;;;;;2.20;2.00;;;26.10;48.40;;;;;;5054723;28;20416;-66
2023/06/28 05:50:16;;;;;;;2.10;1.90;;;26.10;48.50;;;;;;5054627;28;20421;-67
2023/06/28 05:52:45;;;;;;;2.87;2.20;;;26.10;48.50;;;;;;5054873;28;20171;-67
2023/06/28 05:55:11;;;;;;;2.23;2.03;;;26.10;48.50;;;;;;5054503;28;20785;-65
2023/06/28 05:57:37;;;;;;;3.00;1.90;;;26.10;48.50;;;;;;5054464;28;20409;-65
2023/06/28 06:00:07;;;;;;;2.40;2.20;;;26.10;48.50;;;;;;5054451;28;20164;-67
2023/06/28 06:02:33;;;;;;;2.50;1.80;;;26.10;48.50;;;;;;5054337;28;20514;-67
2023/06/28 06:05:00;;;;;;;2.30;1.70;;;26.10;48.50;;;;;;5054331;28;20413;-66
2023/06/28 06:07:26;;;;;;;2.73;1.77;;;26.10;48.50;;;;;;5054359;28;20159;-67
2023/06/28 06:09:54;;;;;;;2.47;1.73;;;26.10;48.50;;;;;;5054189;28;20479;-66
2023/06/28 06:12:19;;;;;;;5.63;1.90;;;26.10;48.50;;;;;;5052863;28;20197;-67
2023/06/28 06:14:45;;;;;;;3.00;1.87;;;26.10;48.50;;;;;;5054485;28;20504;-66
2023/06/28 06:17:10;;;;;;;2.13;1.83;;;26.10;48.60;;;;;;5054123;28;20202;-66
2023/06/28 06:19:36;;;;;;;2.70;2.10;;;26.10;48.60;;;;;;5052767;28;20547;-67
2023/06/28 06:22:02;;;;;;;2.23;1.90;;;26.10;49.20;;;;;;5053172;28;20272;-67
2023/06/28 06:24:28;;;;;;;2.53;2.07;;;26.10;48.60;;;;;;5054049;28;20179;-66
2023/06/28 06:26:54;;;;;;;1.70;1.60;;;26.10;48.60;;;;;;5054116;28;20491;-67
2023/06/28 06:29:19;;;;;;;2.10;1.60;;;26.10;48.60;;;;;;5053905;28;20232;-66
2023/06/28 06:31:45;;;;;;;8.60;2.17;;;26.20;48.70;;;;;;5054110;28;20171;-67
2023/06/28 06:34:10;;;;;;;3.40;1.60;;;26.20;48.70;;;;;;5053809;28;20367;-66
2023/06/28 06:36:36;;;;;;;2.00;1.80;;;26.20;48.70;;;;;;5053644;28;20199;-67
2023/06/28 06:39:02;;;;;;;2.10;1.90;;;26.20;48.70;;;;;;5053757;28;20182;-66
2023/06/28 06:41:27;;;;;;;2.30;2.03;;;26.20;48.70;;;;;;5053814;28;20453;-67
2023/06/28 06:43:53;;;;;;;2.43;2.23;;;26.20;48.70;;;;;;5053656;28;20185;-66
2023/06/28 06:46:20;;;;;;;2.70;1.70;;;26.20;48.70;;;;;;5052427;28;20587;-67
2023/06/28 06:48:46;;;;;;;2.17;1.97;;;26.20;48.70;;;;;;5053515;28;20167;-63
2023/06/28 06:51:12;;;;;;;3.40;2.27;;;26.20;48.80;;;;;;5053397;28;20931;-67
2023/06/28 06:53:37;;;;;;;1.93;1.77;;;26.20;48.80;;;;;;5053516;28;20416;-66
2023/06/28 06:56:04;;;;;;;1.47;1.37;;;26.20;48.80;;;;;;5053316;28;20205;-66
2023/06/28 06:58:30;;;;;;;2.10;1.90;;;26.20;48.80;;;;;;5053462;28;20252;-67
2023/06/28 07:00:55;;;;;;;2.20;1.90;;;26.20;48.80;;;;;;5053159;28;20556;-67
2023/06/28 07:03:21;;;;;;;1.80;1.50;;;26.20;48.80;;;;;;5053620;28;20175;-67
2023/06/28 07:05:46;;;;;;;2.10;1.90;;;26.20;48.80;;;;;;5053172;28;20389;-67
2023/06/28 07:08:12;;;;;;;2.00;1.80;;;26.20;48.80;;;;;;5053194;28;20171;-67
2023/06/28 07:10:38;;;;;;;2.80;1.60;;;26.20;48.90;;;;;;5053115;28;20186;-66
2023/06/28 07:13:04;;;;;;;2.20;2.00;;;26.20;48.90;;;;;;5053043;28;20736;-66
2023/06/28 07:15:29;;;;;;;2.37;1.90;;;26.20;48.90;;;;;;5052974;28;20195;-67
2023/06/28 07:17:55;;;;;;;2.13;1.70;;;26.20;48.90;;;;;;5053032;28;20175;-65
2023/06/28 07:20:21;;;;;;;2.90;2.30;;;26.20;48.90;;;;;;5052841;28;20633;-67
2023/06/28 07:22:47;;;;;;;2.27;1.97;;;26.20;48.90;;;;;;5052903;28;20178;-67
2023/06/28 07:25:13;;;;;;;2.73;1.90;;;26.20;48.90;;;;;;5052786;28;20171;-67
2023/06/28 07:27:38;;;;;;;1.97;1.73;;;26.20;49.00;;;;;;5052792;28;20414;-67
2023/06/28 07:30:07;;;;;;;3.30;1.80;;;26.20;48.90;;;;;;5051749;28;20520;-67
2023/06/28 07:32:33;;;;;;;1.97;1.70;;;26.20;49.00;;;;;;5051825;28;20190;-67
2023/06/28 07:34:58;;;;;;;2.13;1.73;;;26.20;49.00;;;;;;5052677;28;20910;-65
2023/06/28 07:37:24;;;;;;;1.90;1.80;;;26.20;49.00;;;;;;5052398;28;20178;-66
2023/06/28 07:39:50;;;;;;;3.80;2.30;;;26.30;49.00;;;;;;5052866;28;20317;-66
2023/06/28 07:42:15;;;;;;;2.90;1.67;;;26.20;49.00;;;;;;5052526;28;20719;-67
2023/06/28 07:44:41;;;;;;;2.43;1.70;;;26.20;49.00;;;;;;5052550;28;20550;-66
2023/06/28 07:47:07;;;;;;;2.60;1.80;;;26.20;49.00;;;;;;5052379;28;20714;-66
2023/06/28 07:49:32;;;;;;;2.13;1.77;;;26.20;49.00;;;;;;5052396;28;20190;-68
2023/06/28 07:52:00;;;;;;;2.13;1.80;;;26.20;49.00;;;;;;5052549;28;20163;-64
2023/06/28 07:54:25;;;;;;;3.10;1.83;;;26.20;48.90;;;;;;5052583;28;20551;-66
2023/06/28 07:56:51;;;;;;;2.53;1.97;;;26.20;49.00;;;;;;5052687;28;20433;-66
2023/06/28 07:59:19;;;;;;;1.67;1.47;;;26.30;49.10;;;;;;5052652;28;20546;-65
2023/06/28 08:01:45;;;;;;;2.40;1.70;;;26.20;49.10;;;;;;5052246;28;20203;-66
2023/06/28 08:04:11;;;;;;;4.50;1.80;;;26.20;49.00;;;;;;5051046;28;20447;-65
2023/06/28 08:06:36;;;;;;;1.70;1.60;;;26.20;49.60;;;;;;5052473;28;20245;-66
2023/06/28 08:09:02;;;;;;;2.00;1.80;;;26.20;49.00;;;;;;5052213;28;20241;-65
2023/06/28 08:11:28;;;;;;;1.63;1.53;;;26.20;49.00;;;;;;5052259;28;20207;-66
2023/06/28 08:13:54;;;;;;;1.70;1.57;;;26.20;49.00;;;;;;5052128;28;20421;-67
2023/06/28 08:16:19;;;;;;;2.33;2.13;;;26.20;48.90;;;;;;5052446;28;20229;-66
2023/06/28 08:18:45;;;;;;;2.00;1.80;;;26.30;49.00;;;;;;5052137;28;20206;-65
2023/06/28 08:21:10;;;;;;;1.90;1.70;;;26.30;49.00;;;;;;5051983;28;20210;-66
2023/06/28 08:23:36;;;;;;;1.93;1.70;;;26.20;48.90;;;;;;5052020;28;20174;-66
2023/06/28 08:26:02;;;;;;;1.77;1.60;;;26.20;48.90;;;;;;5051923;28;20241;-65
2023/06/28 08:28:27;;;;;;;2.37;1.80;;;26.20;48.90;;;;;;5050636;28;20187;-66
2023/06/28 08:30:53;;;;;;;2.10;1.67;;;26.20;48.90;;;;;;5051963;28;20175;-64
2023/06/28 08:33:19;;;;;;;1.90;1.67;;;26.20;48.90;;;;;;5051873;28;20292;-65
2023/06/28 08:35:44;;;;;;;3.87;1.73;;;26.20;49.50;;;;;;5051814;28;20285;-65
2023/06/28 08:38:11;;;;;;;2.10;1.80;;;26.20;49.00;;;;;;5051643;28;20179;-65
2023/06/28 08:40:37;;;;;;;2.20;1.70;;;26.20;49.00;;;;;;5051770;28;20241;-66
2023/06/28 08:43:03;;;;;;;2.80;1.80;;;26.20;49.00;;;;;;5051601;28;20513;-66
2023/06/28 08:45:34;;;;;;;1.90;1.67;;;26.20;49.10;;;;;;5051198;28;20194;-65
2023/06/28 08:48:01;;;;;;;2.13;1.93;;;26.20;49.00;;;;;;5051546;28;20159;-64
2023/06/28 08:50:28;;;;;;;4.13;2.10;;;26.20;49.00;;;;;;5051410;28;20437;-65
2023/06/28 08:52:53;;;;;;;1.87;1.53;;;26.20;48.90;;;;;;5051473;28;20493;-65
2023/06/28 08:55:20;;;;;;;2.40;1.73;;;26.20;48.90;;;;;;5051692;28;20524;-63
2023/06/28 08:57:47;;;;;;;2.13;1.87;;;26.20;48.80;;;;;;5051593;28;20609;-66
2023/06/28 09:00:14;;;;;;;4.70;1.73;;;26.20;48.80;;;;;;5051440;28;20440;-66
2023/06/28 09:02:43;;;;;;;1.97;1.67;;;26.20;48.80;;;;;;5051274;28;20548;-66
2023/06/28 09:05:10;;;;;;;2.57;2.00;;;26.20;48.80;;;;;;5051274;28;20405;-66
2023/06/28 09:07:40;;;;;;;3.93;1.73;;;26.20;48.80;;;;;;5051286;28;20441;-66
2023/06/28 09:10:10;;;;;;;3.60;2.00;;;26.20;48.70;;;;;;5051331;28;20409;-66
2023/06/28 09:12:37;;;;;;;3.50;1.80;;;26.20;48.70;;;;;;5051480;28;20414;-66
2023/06/28 09:15:06;;;;;;;2.73;1.63;;;26.20;48.70;;;;;;5051471;28;20847;-66
2023/06/28 09:17:32;;;;;;;2.70;1.80;;;26.20;48.60;;;;;;5051355;28;20947;-66
2023/06/28 09:20:02;;;;;;;2.37;1.70;;;26.20;48.60;;;;;;5051450;28;20409;-66
2023/06/28 09:22:29;;;;;;;2.80;1.93;;;26.20;48.60;;;;;;5051187;28;20237;-66
2023/06/28 09:24:54;;;;;;;2.90;1.80;;;26.20;48.60;;;;;;5051388;28;20434;-67
2023/06/28 09:27:20;;;;;;;2.50;1.83;;;26.20;48.50;;;;;;5051054;28;20950;-67
2023/06/28 09:29:58;;;;;;;2.43;1.90;;;26.20;48.50;;;;;;5051171;28;20178;-65
2023/06/28 09:32:24;;;;;;;2.73;1.93;;;26.20;48.50;;;;;;5051183;28;20166;-66
2023/06/28 09:34:49;;;;;;;3.07;2.07;;;26.20;48.50;;;;;;5051143;28;20424;-64
2023/06/28 09:37:15;;;;;;;3.10;2.00;;;26.20;48.50;;;;;;5050914;28;20191;-65
2023/06/28 09:39:41;;;;;;;1.70;1.60;;;26.20;48.50;;;;;;5050960;28;20229;-64
2023/06/28 09:42:06;;;;;;;4.20;1.90;;;26.20;48.50;;;;;;5050943;28;20199;-65
2023/06/28 09:44:32;;;;;;;1.97;1.70;;;26.20;48.40;;;;;;5051011;28;20175;-67
2023/06/28 09:47:03;;;;;;;3.50;1.80;;;26.20;48.30;;;;;;5050912;28;20574;-66
2023/06/28 09:49:29;;;;;;;2.23;1.50;;;26.20;48.20;;;;;;5051074;28;20198;-66
2023/06/28 09:52:03;;;;;;;1.87;1.50;;;26.20;48.10;;;;;;5051002;28;20451;-66
2023/06/28 09:54:40;;;;;;;2.00;1.80;;;26.20;48.10;;;;;;5050929;28;20283;-67
2023/06/28 09:57:07;;;;;;;2.63;2.23;;;26.20;48.40;;;;;;5051706;28;20531;-66
2023/06/28 09:59:33;;;;;;;1.70;1.50;;;26.20;47.80;;;;;;5054561;28;20421;-66
2023/06/28 10:02:03;;;;;;;2.53;1.80;;;26.20;47.70;;;;;;5054348;28;20473;-65
2023/06/28 10:04:30;;;;;;;2.33;1.90;;;26.20;47.70;;;;;;5054407;28;20440;-66
2023/06/28 10:07:00;;;;;;;2.50;2.17;;;26.20;47.60;;;;;;5054350;28;20429;-66
2023/06/28 10:09:33;;;;;;;1.87;1.73;;;26.20;47.50;;;;;;5054410;28;20417;-66
2023/06/28 10:12:01;;;;;;;2.57;1.90;;;26.10;47.40;;;;;;5054475;28;20402;-66
2023/06/28 10:14:31;;;;;;;2.33;1.97;;;26.10;47.50;;;;;;5052967;28;21003;-67
2023/06/28 10:17:00;;;;;;;3.53;2.27;;;26.10;47.50;;;;;;5054405;28;20774;-65
2023/06/28 10:19:26;;;;;;;1.70;1.60;;;26.10;47.50;;;;;;5054212;28;20417;-66
2023/06/28 10:21:53;;;;;;;2.10;1.67;;;26.20;47.60;;;;;;5054069;28;20457;-65
2023/06/28 10:24:19;;;;;;;2.50;2.27;;;26.10;47.50;;;;;;5054065;28;20413;-65
2023/06/28 10:26:45;;;;;;;2.17;1.60;;;26.10;47.50;;;;;;5053950;28;20903;-65
2023/06/28 10:29:12;;;;;;;4.03;1.90;;;26.10;47.50;;;;;;5054018;28;20175;-65
2023/06/28 10:31:37;;;;;;;1.93;1.70;;;26.10;47.50;;;;;;5052640;28;20791;-64
2023/06/28 10:34:04;;;;;;;2.30;1.80;;;26.10;47.40;;;;;;5052609;28;20528;-66
2023/06/28 10:36:30;;;;;;;2.37;2.07;;;26.10;47.40;;;;;;5053839;28;20206;-65
2023/06/28 10:38:56;;;;;;;2.23;2.03;;;26.10;47.30;;;;;;5052522;28;20429;-66
2023/06/28 10:41:22;;;;;;;2.37;2.17;;;26.10;47.20;;;;;;5053719;28;20972;-66
2023/06/28 10:43:50;;;;;;;3.10;1.90;;;26.10;47.20;;;;;;5053751;28;20224;-66
2023/06/28 10:46:26;;;;;;;2.23;1.97;;;26.10;47.20;;;;;;5053694;28;20433;-67
2023/06/28 10:48:56;;;;;;;2.10;1.90;;;26.10;47.30;;;;;;5053751;28;20409;-66
2023/06/28 10:51:25;;;;;;;2.00;1.70;;;26.10;47.30;;;;;;5052400;28;20517;-66
2023/06/28 10:53:53;;;;;;;3.20;1.80;;;26.10;47.10;;;;;;5053685;28;20438;-67
2023/06/28 10:56:19;;;;;;;2.20;1.67;;;26.10;46.90;;;;;;5053510;28;20925;-67
2023/06/28 10:58:47;;;;;;;2.40;2.00;;;26.10;46.90;;;;;;5053453;28;20480;-66
2023/06/28 11:01:31;;;;;;;2.53;1.77;;;26.10;46.70;;;;;;5053300;28;20472;-66
2023/06/28 11:04:22;;;;;;;2.43;1.70;;;26.10;46.50;;;;;;5053402;28;20394;-66
2023/06/28 11:07:15;;;;;;;4.57;2.03;;;26.10;46.30;;;;;;5052942;28;20505;-66
2023/06/28 11:10:01;;;;;;;2.60;1.77;;;26.10;46.40;;;;;;5053584;28;20821;-66
2023/06/28 11:12:27;;;;;;;2.47;2.13;;;26.10;46.10;;;;;;5053049;28;20474;-66
2023/06/28 11:15:07;;;;;;;2.87;2.57;;;26.10;46.20;;;;;;5053208;28;20918;-66
2023/06/28 11:17:33;;;;;;;4.10;2.50;;;26.10;46.20;;;;;;5053157;28;20170;-66
2023/06/28 11:20:06;;;;;;;4.90;3.20;;;26.10;46.50;;;;;;5053066;28;20413;-66
2023/06/28 11:22:50;;;;;;;4.40;2.90;;;26.10;45.90;;;;;;5051688;28;21035;-66
2023/06/28 11:25:16;;;;;;;4.70;2.83;;;26.10;45.90;;;;;;5052817;28;20420;-65
2023/06/28 11:27:41;;;;;;;3.73;2.73;;;26.00;45.80;;;;;;5070443;28;20932;-65
2023/06/28 11:30:08;;;;;;;4.83;2.60;;;26.00;45.80;;;;;;5072680;28;20631;-65
2023/06/28 11:32:36;;;;;;;4.73;3.03;;;26.00;45.80;;;;;;5072698;28;20265;-66
2023/06/28 11:35:04;;;;;;;6.00;3.47;;;26.00;45.90;;;;;;5052479;28;20452;-66
2023/06/28 11:37:30;;;;;;;4.70;2.83;;;26.10;46.00;;;;;;5051368;28;20802;-66
2023/06/28 11:39:59;;;;;;;5.27;3.20;;;26.00;45.90;;;;;;5052584;28;20427;-66
2023/06/28 11:42:24;;;;;;;5.83;3.80;;;26.10;46.00;;;;;;5052796;28;20822;-66
2023/06/28 11:44:52;;;;;;;6.47;3.87;;;26.00;45.80;;;;;;5033407;28;20422;-68
2023/06/28 11:47:22;;;;;;;6.13;3.90;;;26.00;45.80;;;;;;5032131;28;20277;-66
2023/06/28 11:49:47;;;;;;;6.20;3.63;;;26.10;45.90;;;;;;5031147;28;20814;-66
2023/06/28 11:52:17;;;;;;;6.30;3.10;;;26.00;46.00;;;;;;5032712;28;20899;-67
2023/06/28 11:54:44;;;;;;;9.33;3.33;;;26.10;46.10;;;;;;5031174;28;20240;-67
2023/06/28 11:57:10;;;;;;;7.90;4.40;;;26.00;46.20;;;;;;5032267;28;20504;-67
2023/06/28 11:59:37;;;;;;;4.80;3.00;;;26.10;46.30;;;;;;5032337;28;20441;-67
2023/06/28 12:02:07;;;;;;;5.60;3.40;;;26.10;46.40;;;;;;5032234;28;20454;-67
2023/06/28 12:04:36;;;;;;;7.10;3.67;;;26.00;46.40;;;;;;5032317;28;20464;-64
2023/06/28 12:07:04;;;;;;;10.83;3.30;;;26.10;46.50;;;;;;5032417;28;20472;-67
2023/06/28 12:09:35;;;;;;;6.53;3.97;;;26.10;46.50;;;;;;5032151;28;20416;-67
2023/06/28 12:12:06;;;;;;;5.37;2.80;;;26.10;46.60;;;;;;5032293;28;20403;-66
2023/06/28 12:14:39;;;;;;;6.27;3.70;;;26.10;46.60;;;;;;5032416;28;20422;-66
2023/06/28 12:17:05;;;;;;;5.03;3.20;;;26.10;46.60;;;;;;5032340;28;20472;-66
2023/06/28 12:19:35;;;;;;;4.90;2.83;;;26.10;46.50;;;;;;5031812;28;20445;-67
2023/06/28 12:22:06;;;;;;;5.83;2.73;;;26.10;46.30;;;;;;5032023;28;20211;-66
2023/06/28 12:24:34;;;;;;;4.00;3.10;;;26.10;46.20;;;;;;5031999;28;20506;-65
2023/06/28 12:27:02;;;;;;;4.83;2.87;;;26.10;46.20;;;;;;5031767;28;20462;-66
2023/06/28 12:29:30;;;;;;;4.17;2.60;;;26.10;46.20;;;;;;5031871;28;20919;-64
2023/06/28 12:32:02;;;;;;;3.00;2.53;;;26.10;46.20;;;;;;5031875;28;20941;-64
2023/06/28 12:34:31;;;;;;;3.20;2.70;;;26.10;46.20;;;;;;5032114;28;20407;-65
2023/06/28 12:36:59;;;;;;;2.17;1.97;;;26.10;46.10;;;;;;5031891;28;20522;-64
2023/06/28 12:39:27;;;;;;;2.63;2.17;;;26.10;46.10;;;;;;5031713;28;20422;-65
2023/06/28 12:42:02;;;;;;;5.30;2.33;;;26.10;45.90;;;;;;5031644;28;20540;-64
2023/06/28 12:44:29;;;;;;;3.00;2.20;;;26.10;45.90;;;;;;5032107;28;20437;-65
2023/06/28 12:46:56;;;;;;;2.70;2.00;;;26.10;46.00;;;;;;5031604;28;20927;-65